createdAt,value
2019-03-27T00:01:39.952Z,-0.50
2019-03-27T00:06:44.806Z,-0.50
2019-03-27T00:11:49.770Z,-0.50
2019-03-27T00:16:55.026Z,-0.60
2019-03-27T00:21:59.872Z,-0.60
2019-03-27T00:27:04.839Z,-0.60
2019-03-27T00:32:10.476Z,-0.60
2019-03-27T00:37:15.330Z,-0.70
2019-03-27T00:42:20.164Z,-0.80
2019-03-27T00:47:25.022Z,-0.90
2019-03-27T00:52:29.872Z,-0.90
2019-03-27T00:57:34.714Z,-1.00
2019-03-27T01:02:39.570Z,-1.00
2019-03-27T01:07:44.412Z,-1.00
2019-03-27T01:12:49.196Z,-1.10
2019-03-27T01:17:54.121Z,-1.10
2019-03-27T01:22:58.981Z,-1.20
2019-03-27T01:28:03.801Z,-1.10
2019-03-27T01:33:08.632Z,-1.10
2019-03-27T01:38:13.760Z,-1.20
2019-03-27T01:43:18.526Z,-1.20
2019-03-27T01:48:23.351Z,-1.20
2019-03-27T01:53:28.159Z,-1.20
2019-03-27T01:58:32.999Z,-1.20
2019-03-27T02:03:37.829Z,-1.30
2019-03-27T02:08:42.600Z,-1.30
2019-03-27T02:13:47.416Z,-1.30
2019-03-27T02:18:52.375Z,-1.40
2019-03-27T02:23:57.426Z,-1.40
2019-03-27T02:29:02.676Z,-1.50
2019-03-27T02:34:07.928Z,-1.50
2019-03-27T02:39:12.866Z,-1.50
2019-03-27T02:44:17.651Z,-1.60
2019-03-27T02:49:22.481Z,-1.60
2019-03-27T02:54:27.187Z,-1.70
2019-03-27T02:59:32.009Z,-1.70
2019-03-27T03:04:37.458Z,-1.80
2019-03-27T03:09:42.288Z,-1.90
2019-03-27T03:14:47.054Z,-1.90
2019-03-27T03:19:52.559Z,-1.90
2019-03-27T03:24:57.397Z,-2.00
2019-03-27T03:30:02.256Z,-2.10
2019-03-27T03:35:07.765Z,-2.10
2019-03-27T03:40:13.959Z,-2.10
2019-03-27T03:45:18.809Z,-2.10
2019-03-27T03:50:35.832Z,-2.20
2019-03-27T03:55:41.360Z,-2.20
2019-03-27T04:00:46.709Z,-2.30
2019-03-27T04:05:51.489Z,-2.30
2019-03-27T04:10:56.327Z,-2.30
2019-03-27T04:16:01.190Z,-2.40
2019-03-27T04:21:06.100Z,-2.40
2019-03-27T04:26:11.118Z,-2.40
2019-03-27T04:31:16.131Z,-2.50
2019-03-27T04:36:20.969Z,-2.50
2019-03-27T04:41:25.819Z,-2.60
2019-03-27T04:46:30.575Z,-2.60
2019-03-27T04:51:35.448Z,-2.70
2019-03-27T04:56:40.778Z,-2.70
2019-03-27T05:01:45.616Z,-2.70
2019-03-27T05:07:02.537Z,-2.70
2019-03-27T05:12:07.398Z,-2.70
2019-03-27T05:17:12.244Z,-2.60
2019-03-27T05:22:17.254Z,-2.50
2019-03-27T05:27:22.052Z,-2.50
2019-03-27T05:32:26.911Z,-2.40
2019-03-27T05:37:31.752Z,-2.30
2019-03-27T05:42:36.684Z,-2.10
2019-03-27T05:47:41.538Z,-2.00
2019-03-27T05:52:46.369Z,-1.80
2019-03-27T05:58:03.397Z,-1.60
2019-03-27T06:03:08.417Z,-1.30
2019-03-27T06:08:13.188Z,-1.10
2019-03-27T06:13:18.021Z,-0.80
2019-03-27T06:18:22.883Z,-0.50
2019-03-27T06:23:28.211Z,-0.20
2019-03-27T06:28:32.974Z,0.00
2019-03-27T06:33:38.102Z,0.30
2019-03-27T06:38:42.860Z,0.60
2019-03-27T06:43:47.696Z,0.90
2019-03-27T06:48:52.543Z,1.10
2019-03-27T06:53:57.375Z,1.30
2019-03-27T06:59:02.153Z,1.50
2019-03-27T07:04:10.719Z,1.80
2019-03-27T07:09:13.440Z,2.10
2019-03-27T07:14:18.208Z,2.40
2019-03-27T07:19:22.971Z,2.70
2019-03-27T07:24:27.887Z,3.10
2019-03-27T07:29:33.131Z,3.50
2019-03-27T07:34:37.975Z,3.90
2019-03-27T07:39:42.819Z,4.20
2019-03-27T07:44:47.580Z,4.70
2019-03-27T07:49:52.409Z,5.00
2019-03-27T07:54:57.237Z,5.40
2019-03-27T08:00:02.323Z,5.70
2019-03-27T08:05:07.754Z,6.00
2019-03-27T08:10:12.778Z,6.20
2019-03-27T08:15:17.712Z,6.40
2019-03-27T08:20:22.550Z,6.60
2019-03-27T08:25:28.347Z,6.80
2019-03-27T08:30:33.189Z,7.10
2019-03-27T08:35:38.050Z,7.20
2019-03-27T08:40:42.880Z,7.50
2019-03-27T08:45:47.725Z,7.40
2019-03-27T08:50:52.573Z,7.70
2019-03-27T08:55:57.328Z,7.90
2019-03-27T09:01:02.444Z,8.40
2019-03-27T09:06:07.300Z,8.40
2019-03-27T09:11:12.148Z,8.60
2019-03-27T09:16:16.970Z,8.70
2019-03-27T09:21:21.800Z,8.90
2019-03-27T09:26:27.103Z,9.10
2019-03-27T09:31:43.925Z,8.90
2019-03-27T09:36:38.409Z,9.20
2019-03-27T09:41:43.232Z,9.30
2019-03-27T09:46:48.071Z,9.60
2019-03-27T09:51:52.894Z,9.80
2019-03-27T09:56:57.743Z,9.90
2019-03-27T10:02:02.875Z,10.10
2019-03-27T10:07:07.713Z,10.50
2019-03-27T10:12:12.559Z,10.40
2019-03-27T10:17:17.400Z,10.00
2019-03-27T10:22:22.250Z,9.80
2019-03-27T10:27:27.171Z,10.10
2019-03-27T10:32:31.985Z,10.10
2019-03-27T10:37:36.827Z,9.80
2019-03-27T10:42:41.664Z,10.20
2019-03-27T10:47:46.490Z,10.90
2019-03-27T10:52:51.389Z,11.00
2019-03-27T10:57:56.240Z,11.20
2019-03-27T11:03:01.082Z,11.30
2019-03-27T11:08:05.934Z,11.10
2019-03-27T11:13:10.778Z,11.30
2019-03-27T11:18:15.611Z,11.50
2019-03-27T11:23:20.463Z,11.30
2019-03-27T11:28:26.364Z,11.50
2019-03-27T11:33:31.197Z,11.70
2019-03-27T11:38:37.547Z,11.70
2019-03-27T11:43:54.112Z,11.60
2019-03-27T11:48:50.486Z,11.60
2019-03-27T11:53:55.267Z,12.10
2019-03-27T11:59:00.118Z,12.00
2019-03-27T12:04:04.944Z,12.20
2019-03-27T12:09:09.768Z,12.30
2019-03-27T12:14:14.671Z,12.20
2019-03-27T12:19:19.514Z,12.20
2019-03-27T12:24:24.372Z,11.30
2019-03-27T12:29:29.885Z,11.60
2019-03-27T12:34:36.888Z,11.20
2019-03-27T12:39:41.274Z,11.70
2019-03-27T12:44:46.145Z,11.70
2019-03-27T12:49:52.048Z,11.30
2019-03-27T12:54:57.075Z,11.30
2019-03-27T13:00:01.932Z,11.10
2019-03-27T13:05:08.395Z,11.70
2019-03-27T13:10:13.242Z,12.40
2019-03-27T13:15:18.078Z,12.70
2019-03-27T14:01:52.375Z,10.60
2019-03-27T14:06:57.363Z,10.60
2019-03-27T14:12:02.218Z,10.60
2019-03-27T14:17:07.048Z,10.50
2019-03-27T14:22:11.898Z,10.50
2019-03-27T14:27:16.673Z,10.60
2019-03-27T14:32:21.539Z,10.60
2019-03-27T14:37:26.394Z,10.60
2019-03-27T14:42:31.200Z,10.60
2019-03-27T14:47:36.036Z,10.60
2019-03-27T14:52:40.905Z,10.40
2019-03-27T14:57:45.765Z,10.40
2019-03-27T15:02:50.604Z,10.30
2019-03-27T15:07:55.543Z,10.40
2019-03-27T15:13:00.376Z,10.40
2019-03-27T15:18:05.212Z,10.40
2019-03-27T15:23:10.698Z,10.20
2019-03-27T15:28:15.564Z,10.20
2019-03-27T15:33:20.418Z,10.10
2019-03-27T15:38:25.180Z,10.00
2019-03-27T15:43:30.697Z,9.90
2019-03-27T15:48:35.543Z,9.90
2019-03-27T15:53:40.309Z,9.80
2019-03-27T15:58:45.137Z,9.90
2019-03-27T16:03:49.982Z,9.90
2019-03-27T16:08:57.042Z,9.80
2019-03-27T18:54:03.111Z,8.60
2019-03-27T18:59:07.954Z,8.50
2019-03-27T19:04:12.807Z,8.50
2019-03-27T19:09:17.643Z,8.50
2019-03-27T19:14:22.520Z,8.50
2019-03-27T19:19:27.290Z,8.50
2019-03-27T19:24:32.140Z,8.50
2019-03-27T19:29:36.967Z,8.40
2019-03-27T19:34:41.892Z,8.30
2019-03-27T19:39:46.663Z,8.30
2019-03-27T19:44:51.426Z,8.30
2019-03-27T19:49:56.198Z,8.30
2019-03-27T19:55:00.957Z,8.30
2019-03-27T20:00:08.219Z,8.20
2019-03-27T20:05:13.248Z,8.20
2019-03-27T20:10:18.385Z,8.20
2019-03-27T20:15:23.438Z,8.10
2019-03-27T20:20:28.583Z,8.10
2019-03-27T20:25:33.431Z,8.10
2019-03-27T20:30:38.264Z,8.10
2019-03-27T20:35:43.086Z,8.10
2019-03-27T20:40:47.923Z,8.00
2019-03-27T20:45:53.088Z,8.00
2019-03-27T20:50:57.933Z,8.00
2019-03-27T20:56:02.899Z,7.90
2019-03-27T21:01:07.780Z,7.90
2019-03-27T21:06:12.665Z,7.80
2019-03-27T21:11:17.604Z,7.80
2019-03-27T21:16:22.465Z,7.70
2019-03-27T21:21:27.338Z,7.70
2019-03-27T21:26:32.563Z,7.60
2019-03-27T21:31:37.431Z,7.60
2019-03-27T21:36:42.258Z,7.70
2019-03-27T21:41:47.193Z,7.60
2019-03-27T21:46:53.329Z,7.60
2019-03-27T21:51:58.096Z,7.60
2019-03-27T21:57:03.167Z,7.60
2019-03-27T22:02:09.369Z,7.60
2019-03-27T22:07:14.227Z,7.60
2019-03-27T22:12:19.091Z,7.60
2019-03-27T22:17:23.939Z,7.50
2019-03-27T22:22:29.093Z,7.50
2019-03-27T22:27:33.876Z,7.50
2019-03-27T22:32:38.732Z,7.50
2019-03-27T22:37:43.608Z,7.50
2019-03-27T22:42:49.900Z,7.50
2019-03-27T22:47:54.808Z,7.50
2019-03-27T22:52:59.690Z,7.50
2019-03-27T22:58:04.544Z,7.50
2019-03-27T23:03:18.258Z,7.50
2019-03-27T23:08:16.560Z,7.50
2019-03-27T23:13:23.386Z,7.40
2019-03-27T23:18:28.172Z,7.40
2019-03-27T23:23:33.042Z,7.40
2019-03-27T23:28:37.828Z,7.40
2019-03-27T23:33:42.669Z,7.40
2019-03-27T23:38:47.809Z,7.30
2019-03-27T23:43:52.605Z,7.30
2019-03-27T23:48:59.217Z,7.30
2019-03-27T23:54:04.077Z,7.30
2019-03-27T23:59:08.930Z,7.30
